ADDS METAR Data INFO
IDs: Format: Raw Decoded Include TAF

Data at: 1021 UTC 12 Dec 2017

KPVC 120956Z AUTO 10004KT 10SM OVC045 03/M02 A2991 RMK AO2 SLP126 T00281017
KPVC 120856Z AUTO 09003KT 10SM OVC038 02/M03 A2994 RMK AO2 SLP139 T00171028 58018 FZRANO
KPVC 120756Z AUTO 11003KT 10SM BKN044 OVC085 02/M04 A2996 RMK AO2 SLP146 T00171044 FZRANO
KPVC 120656Z AUTO 11005KT 10SM OVC046 02/M05 A2998 RMK AO2 SLP151 T00171050 FZRANO
KPVC 120556Z AUTO 00000KT 10SM BKN090 01/M03 A3000 RMK AO2 SLP157 T00061033 10028 21028 56011 FZRANO
KPVC 120456Z AUTO 12003KT 10SM FEW110 M01/M04 A3001 RMK AO2 SLP162 T10061039 400441028 FZRANO
KPVC 120356Z AUTO 10SM CLR M01/M04 A3001 RMK AO2 SLP162 T10111039 FZRANO
KPVC 120256Z AUTO 00000KT 10SM CLR M01/M04 A3003 RMK AO2 SLP168 T10111044 56001 FZRANO
KPVC 120156Z AUTO 00000KT 10SM CLR M02/M06 A3003 RMK AO2 SLP169 T10221056 FZRANO
KPVC 120056Z AUTO 00000KT 10SM CLR M01/M06 A3003 RMK AO2 SLP167 T10061061 FZRANO
KPVC 112356Z AUTO 29006KT 10SM FEW044 03/M06 A3003 RMK AO2 SLP169 6//// T00281061 10044 20022 51013
KPVC 112256Z AUTO 28007KT 10SM FEW042 02/M06 A3002 RMK AO2 SLP166 T00221056 FZRANO
KPVC 112156Z AUTO 27007KT 10SM FEW042 03/M06 A3001 RMK AO2 SLP162 T00281056
KPVC 112056Z AUTO 31008KT 10SM BKN040 03/M04 A2999 RMK AO2 SLP156 T00331044 53015
KPVC 111956Z AUTO 30009KT 10SM CLR 04/M04 A2997 RMK AO2 SLP149 T00391044
KPVC 111856Z AUTO 29008G17KT 10SM CLR 04/M04 A2996 RMK AO2 SLP145 T00441044
KPVC 111756Z AUTO 30008KT 10SM CLR 04/M05 A2995 RMK AO2 SLP141 6//// T00441050 10044 20022 56014
KPVC 111656Z AUTO 27011KT 10SM BKN070 04/M03 A2996 RMK AO2 SLP145 T00441033
KPVC 111556Z AUTO 25012KT 10SM OVC070 03/M03 A2998 RMK AO2 SLP150 T00281033
KPVC 111456Z AUTO 26016G21KT 10SM BKN100 03/M04 A2999 RMK AO2 SLP154 6//// T00331039
KPVC 111356Z AUTO 24012G20KT 10SM CLR 02/M03 A2999 RMK AO2 SLP156 T00221033 FZRANO
KPVC 111256Z AUTO 25015G18KT 10SM CLR 02/M04 RMK AO2 SLPNO T00221039 FZRANO $
KPVC 111156Z AUTO 25014KT 10SM OVC048 02/M04 A2998 RMK AO2 SLP152 6//// 7//// T00221044 10033 20022 53012 FZRANO
KPVC 111056Z AUTO 26013KT 10SM OVC050 02/M05 A2996 RMK AO2 SLP145 T00221050 FZRANO
KPVC 110956Z AUTO 26013G18KT 10SM FEW050 02/M04 A2995 RMK AO2 SLP140 T00221044 FZRANO
KPVC 110856Z AUTO 26012G17KT 10SM CLR 02/M04 A2995 RMK AO2 SLP140 T00221044 58006 FZRANO
KPVC 110756Z AUTO 26015KT 10SM BKN100 03/M05 A2995 RMK AO2 SLP143 T00281050
KPVC 110656Z AUTO 26015G20KT 10SM OVC049 03/M04 A2996 RMK AO2 SLP146 T00281044
KPVC 110556Z AUTO 25014KT 10SM OVC038 03/M04 A2996 RMK AO2 RAB28E49 SLP146 P0000 60000 T00331039 10033 20022 58004
KPVC 110456Z AUTO 25016KT 10SM BKN042 OVC049 03/M04 A2997 RMK AO2 SLP149 T00331039 400440017
KPVC 110256Z AUTO 24013KT 10SM CLR 02/M04 A2998 RMK AO2 SLP150 T00221039 51011 FZRANO
KPVC 110156Z AUTO 25016G20KT 10SM CLR 02/M04 A2997 RMK AO2 SLP148 T00221044 FZRANO
KPVC 110056Z AUTO 24016KT 10SM CLR 03/M04 A2996 RMK AO2 SLP144 T00281044
KPVC 102356Z AUTO 25013KT 10SM FEW035 02/M04 A2994 RMK AO2 SLP139 6//// T00221044 10044 20022 51024 FZRANO
KPVC 102256Z AUTO 26013KT 10SM CLR 02/M05 A2993 RMK AO2 SLP134 T00221050 FZRANO